createdAt,value
2022-09-11T00:01:18.081Z,1.90
2022-09-11T00:03:47.500Z,1.90
2022-09-11T00:06:28.522Z,1.80
2022-09-11T00:09:00.735Z,1.77
2022-09-11T00:11:30.631Z,2.00
2022-09-11T00:13:59.351Z,2.13
2022-09-11T00:16:29.905Z,1.85
2022-09-11T00:18:59.949Z,2.20
2022-09-11T00:21:29.453Z,2.17
2022-09-11T00:23:59.652Z,2.25
2022-09-11T00:26:28.937Z,2.10
2022-09-11T00:28:57.685Z,2.28
2022-09-11T00:31:28.059Z,2.22
2022-09-11T00:33:56.752Z,1.98
2022-09-11T00:36:25.923Z,2.00
2022-09-11T00:38:54.411Z,1.83
2022-09-11T00:41:25.629Z,2.10
2022-09-11T00:43:55.322Z,2.00
2022-09-11T00:46:25.021Z,1.95
2022-09-11T00:48:54.627Z,1.90
2022-09-11T00:51:24.975Z,2.00
2022-09-11T00:53:54.385Z,1.80
2022-09-11T00:56:25.446Z,1.98
2022-09-11T00:58:55.823Z,2.17
2022-09-11T01:01:24.835Z,1.85
2022-09-11T01:03:53.454Z,1.60
2022-09-11T01:06:22.190Z,1.80
2022-09-11T01:08:51.395Z,1.95
2022-09-11T01:11:24.454Z,1.77
2022-09-11T01:13:59.022Z,1.75
2022-09-11T01:16:30.000Z,1.80
2022-09-11T01:19:03.549Z,1.67
2022-09-11T01:21:43.502Z,1.42
2022-09-11T01:24:30.731Z,1.52
2022-09-11T01:27:10.847Z,1.25
2022-09-11T01:29:43.938Z,1.60
2022-09-11T01:32:16.336Z,1.50
2022-09-11T01:34:48.155Z,1.67
2022-09-11T01:37:18.714Z,1.50
2022-09-11T01:39:51.278Z,1.58
2022-09-11T01:42:22.385Z,1.50
2022-09-11T01:44:53.604Z,2.05
2022-09-11T01:47:23.286Z,1.50
2022-09-11T01:49:55.891Z,1.70
2022-09-11T01:52:28.155Z,1.90
2022-09-11T01:54:59.736Z,1.77
2022-09-11T01:57:34.202Z,1.27
2022-09-11T02:00:04.596Z,1.60
2022-09-11T02:02:36.423Z,1.30
2022-09-11T02:05:07.057Z,1.70
2022-09-11T02:07:39.789Z,1.70
2022-09-11T02:10:10.222Z,1.58
2022-09-11T02:12:42.017Z,1.70
2022-09-11T02:15:13.588Z,1.52
2022-09-11T02:17:45.405Z,1.38
2022-09-11T02:20:14.167Z,1.98
2022-09-11T02:22:42.624Z,1.80
2022-09-11T02:25:11.539Z,1.70
2022-09-11T02:27:39.942Z,1.60
2022-09-11T02:30:09.101Z,1.60
2022-09-11T02:32:41.197Z,1.45
2022-09-11T02:35:10.515Z,2.03
2022-09-11T02:37:43.911Z,1.90
2022-09-11T02:40:20.857Z,1.65
2022-09-11T02:42:56.846Z,1.77
2022-09-11T02:45:31.675Z,1.60
2022-09-11T02:48:05.952Z,1.70
2022-09-11T02:50:38.451Z,1.70
2022-09-11T02:53:08.577Z,1.90
2022-09-11T02:55:42.262Z,1.67
2022-09-11T02:58:15.715Z,1.70
2022-09-11T03:00:48.119Z,1.80
2022-09-11T03:03:18.978Z,1.70
2022-09-11T03:05:47.421Z,1.80
2022-09-11T03:08:16.908Z,2.10
2022-09-11T03:10:46.734Z,1.70
2022-09-11T03:13:15.443Z,1.98
2022-09-11T03:15:44.533Z,2.03
2022-09-11T03:18:13.911Z,1.95
2022-09-11T03:20:47.348Z,1.90
2022-09-11T03:23:15.639Z,1.80
2022-09-11T03:25:43.797Z,2.10
2022-09-11T03:28:12.006Z,1.80
2022-09-11T03:30:42.313Z,2.03
2022-09-11T03:33:11.428Z,1.80
2022-09-11T03:35:39.926Z,2.10
2022-09-11T03:38:09.483Z,2.00
2022-09-11T03:40:37.629Z,2.00
2022-09-11T03:43:06.128Z,2.03
2022-09-11T03:45:34.584Z,2.17
2022-09-11T03:48:03.171Z,2.22
2022-09-11T03:50:31.319Z,2.13
2022-09-11T03:52:59.858Z,1.90
2022-09-11T03:55:29.497Z,2.25
2022-09-11T03:57:58.289Z,2.00
2022-09-11T04:00:26.535Z,2.10
2022-09-11T04:02:55.766Z,2.00
2022-09-11T04:05:25.409Z,1.95
2022-09-11T04:07:53.950Z,1.75
2022-09-11T04:10:22.748Z,1.85
2022-09-11T04:12:52.335Z,2.10
2022-09-11T04:15:20.548Z,2.10
2022-09-11T04:17:49.250Z,2.10
2022-09-11T04:20:17.895Z,2.00
2022-09-11T04:22:46.496Z,1.77
2022-09-11T04:25:14.689Z,1.52
2022-09-11T04:27:42.854Z,1.85
2022-09-11T04:30:14.025Z,1.70
2022-09-11T04:32:42.307Z,2.13
2022-09-11T04:35:11.081Z,2.03
2022-09-11T04:37:40.680Z,2.03
2022-09-11T04:40:11.647Z,1.88
2022-09-11T04:42:39.861Z,1.90
2022-09-11T04:45:09.040Z,1.73
2022-09-11T04:47:38.602Z,1.83
2022-09-11T04:50:07.733Z,1.60
2022-09-11T04:52:35.892Z,1.83
2022-09-11T04:55:04.263Z,1.70
2022-09-11T04:57:32.705Z,1.70
2022-09-11T05:00:00.899Z,1.85
2022-09-11T05:02:29.721Z,1.77
2022-09-11T05:05:00.177Z,1.80
2022-09-11T05:07:29.428Z,1.83
2022-09-11T05:09:57.619Z,1.73
2022-09-11T05:12:25.787Z,1.80
2022-09-11T05:14:53.958Z,1.73
2022-09-11T05:17:22.096Z,1.80
2022-09-11T05:19:50.347Z,1.90
2022-09-11T05:22:19.939Z,1.70
2022-09-11T05:24:48.063Z,1.98
2022-09-11T05:27:16.264Z,1.92
2022-09-11T05:29:44.639Z,1.85
2022-09-11T05:32:13.224Z,1.70
2022-09-11T05:34:41.720Z,1.90
2022-09-11T05:37:09.897Z,1.80
2022-09-11T05:39:39.528Z,2.00
2022-09-11T05:42:07.976Z,1.92
2022-09-11T05:44:37.263Z,2.17
2022-09-11T05:47:05.848Z,2.20
2022-09-11T05:49:34.067Z,1.88
2022-09-11T05:52:02.506Z,2.10
2022-09-11T05:54:30.679Z,2.00
2022-09-11T05:57:06.905Z,1.80
2022-09-11T05:59:36.643Z,1.95
2022-09-11T06:02:05.190Z,2.00
2022-09-11T06:04:34.144Z,1.95
2022-09-11T06:07:02.302Z,1.90
2022-09-11T06:09:30.538Z,2.22
2022-09-11T06:12:00.943Z,1.95
2022-09-11T06:14:29.275Z,2.20
2022-09-11T06:16:57.822Z,1.80
2022-09-11T06:19:26.002Z,1.80
2022-09-11T06:21:54.374Z,1.88
2022-09-11T06:24:22.542Z,1.95
2022-09-11T06:26:50.698Z,1.85
2022-09-11T06:29:20.285Z,1.77
2022-09-11T06:31:51.377Z,1.73
2022-09-11T06:34:21.014Z,2.10
2022-09-11T06:36:52.183Z,1.80
2022-09-11T06:39:22.880Z,1.85
2022-09-11T06:41:51.371Z,1.60
2022-09-11T06:44:21.230Z,1.88
2022-09-11T06:46:49.477Z,1.95
2022-09-11T06:49:17.694Z,1.80
2022-09-11T06:51:45.865Z,2.00
2022-09-11T06:54:14.025Z,1.70
2022-09-11T06:56:42.224Z,1.70
2022-09-11T06:59:10.392Z,1.90
2022-09-11T07:01:40.363Z,1.50
2022-09-11T07:04:08.716Z,1.70
2022-09-11T07:06:38.642Z,1.63
2022-09-11T07:09:06.883Z,1.50
2022-09-11T07:11:36.483Z,1.73
2022-09-11T07:14:06.362Z,1.45
2022-09-11T07:16:35.202Z,1.20
2022-09-11T07:19:05.651Z,1.45
2022-09-11T07:21:36.246Z,1.50
2022-09-11T07:24:05.326Z,1.60
2022-09-11T07:26:33.584Z,1.50
2022-09-11T07:29:01.751Z,1.48
2022-09-11T07:31:32.824Z,1.60
2022-09-11T07:34:02.763Z,1.58
2022-09-11T07:36:34.689Z,1.35
2022-09-11T07:39:03.962Z,1.40
2022-09-11T07:41:32.305Z,1.67
2022-09-11T07:44:01.466Z,1.40
2022-09-11T07:46:31.369Z,1.60
2022-09-11T07:48:59.822Z,2.20
2022-09-11T07:51:28.204Z,1.88
2022-09-11T07:54:00.096Z,1.90
2022-09-11T07:56:30.991Z,2.50
2022-09-11T07:58:59.179Z,2.80
2022-09-11T08:01:29.817Z,3.00
2022-09-11T08:04:00.421Z,3.75
2022-09-11T08:06:29.793Z,3.97
2022-09-11T08:09:01.772Z,4.60
2022-09-11T08:11:31.805Z,4.57
2022-09-11T08:14:00.382Z,3.95
2022-09-11T08:16:29.890Z,5.53
2022-09-11T08:18:58.431Z,7.68
2022-09-11T08:21:27.730Z,8.50
2022-09-11T08:23:56.525Z,12.15
2022-09-11T08:26:28.575Z,18.30
2022-09-11T08:28:59.971Z,20.02
2022-09-11T08:31:29.218Z,18.20
2022-09-11T08:33:58.409Z,11.40
2022-09-11T08:36:26.954Z,7.57
2022-09-11T08:38:55.451Z,6.68
2022-09-11T08:41:30.824Z,6.50
2022-09-11T08:44:01.545Z,6.65
2022-09-11T08:46:33.319Z,9.35
2022-09-11T08:49:04.906Z,11.15
2022-09-11T08:51:33.988Z,11.60
2022-09-11T08:54:03.805Z,9.68
2022-09-11T08:56:36.216Z,11.27
2022-09-11T08:59:19.308Z,11.98
2022-09-11T09:01:53.245Z,9.95
2022-09-11T09:04:40.803Z,14.68
2022-09-11T09:07:16.427Z,16.55
2022-09-11T09:09:47.386Z,19.70
2022-09-11T09:12:21.043Z,21.00
2022-09-11T09:15:17.050Z,21.98
2022-09-11T09:17:49.238Z,17.67
2022-09-11T09:20:21.185Z,22.67
2022-09-11T09:22:51.591Z,23.70
2022-09-11T09:25:22.698Z,26.85
2022-09-11T09:27:54.910Z,26.15
2022-09-11T09:30:24.756Z,19.75
2022-09-11T09:32:55.062Z,20.45
2022-09-11T09:35:25.100Z,22.25
2022-09-11T09:37:54.291Z,24.65
2022-09-11T09:40:26.267Z,21.25
2022-09-11T09:43:11.249Z,19.67
2022-09-11T09:45:44.843Z,19.13
2022-09-11T09:48:14.840Z,12.68
2022-09-11T09:50:45.078Z,11.15
2022-09-11T09:53:17.974Z,15.82
2022-09-11T09:55:47.710Z,23.20
2022-09-11T09:58:17.569Z,25.88
2022-09-11T10:00:46.175Z,28.85
2022-09-11T10:03:21.801Z,29.50
2022-09-11T10:05:50.865Z,32.28
2022-09-11T10:08:35.562Z,23.85
2022-09-11T10:11:04.734Z,21.40
2022-09-11T10:13:35.274Z,29.77
2022-09-11T10:16:04.874Z,28.08
2022-09-11T10:18:37.798Z,29.55
2022-09-11T10:21:24.138Z,21.92
2022-09-11T10:23:54.489Z,23.17
2022-09-11T10:26:26.746Z,23.73
2022-09-11T10:28:58.531Z,18.15
2022-09-11T10:31:27.546Z,21.65
2022-09-11T10:33:57.515Z,26.88
2022-09-11T10:36:27.222Z,27.38
2022-09-11T10:38:56.210Z,28.58
2022-09-11T10:41:26.173Z,30.23
2022-09-11T10:43:59.011Z,32.80
2022-09-11T10:46:29.832Z,31.85
2022-09-11T10:48:59.560Z,33.80
2022-09-11T10:51:29.993Z,28.63
2022-09-11T10:54:07.414Z,32.83
2022-09-11T10:56:37.871Z,30.73
2022-09-11T10:59:09.697Z,34.67
2022-09-11T11:01:38.531Z,37.08
2022-09-11T11:04:11.738Z,39.10
2022-09-11T11:06:50.332Z,45.58
2022-09-11T11:09:30.391Z,52.80
2022-09-11T11:12:07.785Z,52.00
2022-09-11T11:14:54.665Z,48.53
2022-09-11T11:17:28.857Z,35.67
2022-09-11T11:20:07.121Z,31.90
2022-09-11T11:22:49.425Z,31.15
2022-09-11T11:25:20.074Z,24.83
2022-09-11T11:27:57.515Z,11.65
2022-09-11T11:30:31.576Z,5.80
2022-09-11T11:33:09.167Z,6.45
2022-09-11T11:35:39.251Z,13.63
2022-09-11T11:38:11.429Z,23.60
2022-09-11T11:40:42.653Z,30.73
2022-09-11T11:43:17.593Z,20.30
2022-09-11T11:45:50.426Z,19.73
2022-09-11T11:48:21.109Z,32.45
2022-09-11T11:50:51.305Z,41.05
2022-09-11T11:53:22.641Z,40.15
2022-09-11T11:55:56.352Z,21.13
2022-09-11T11:58:30.335Z,26.52
2022-09-11T12:01:02.025Z,16.98
2022-09-11T12:03:34.784Z,11.82
2022-09-11T12:06:03.602Z,11.93
2022-09-11T12:08:32.682Z,8.35
2022-09-11T12:11:02.783Z,5.35
2022-09-11T12:13:44.477Z,21.40
2022-09-11T12:16:17.415Z,34.10
2022-09-11T12:19:00.727Z,37.45
2022-09-11T12:21:37.149Z,22.42
2022-09-11T12:24:14.798Z,20.55
2022-09-11T12:26:43.318Z,29.63
2022-09-11T12:29:42.380Z,19.00
2022-09-11T12:32:25.926Z,17.63
2022-09-11T12:35:02.941Z,25.83
2022-09-11T12:37:34.677Z,25.95
2022-09-11T12:40:07.208Z,12.18
2022-09-11T12:42:49.654Z,7.00
2022-09-11T12:45:35.966Z,5.28
2022-09-11T12:48:10.564Z,2.55
2022-09-11T12:50:39.487Z,2.17
2022-09-11T12:53:09.131Z,2.83
2022-09-11T12:55:40.882Z,5.43
2022-09-11T12:58:23.184Z,16.55
2022-09-11T13:00:54.480Z,10.82
2022-09-11T13:03:27.995Z,9.55
2022-09-11T13:06:00.100Z,18.15
2022-09-11T13:08:29.881Z,22.08
2022-09-11T13:11:15.407Z,24.25
2022-09-11T13:13:46.986Z,11.70
2022-09-11T13:16:19.645Z,8.32
2022-09-11T13:18:49.523Z,8.98
2022-09-11T13:21:20.325Z,14.65
2022-09-11T13:23:52.327Z,20.95
2022-09-11T13:26:26.100Z,26.65
2022-09-11T13:28:55.731Z,18.02
2022-09-11T13:31:30.442Z,10.45
2022-09-11T13:34:00.652Z,10.60
2022-09-11T13:36:29.816Z,18.38
2022-09-11T13:39:00.329Z,26.25
2022-09-11T13:41:30.782Z,27.83
2022-09-11T13:44:00.402Z,20.45
2022-09-11T13:46:31.595Z,18.52
2022-09-11T13:49:16.429Z,23.95
2022-09-11T13:51:46.245Z,30.02
2022-09-11T13:54:16.133Z,16.58
2022-09-11T13:56:48.963Z,19.67
2022-09-11T13:59:28.009Z,25.40
2022-09-11T14:02:00.878Z,15.30
2022-09-11T14:04:32.847Z,16.08
2022-09-11T14:07:01.785Z,24.02
2022-09-11T14:09:30.247Z,15.48
2022-09-11T14:12:04.111Z,15.55
2022-09-11T14:14:34.177Z,18.42
2022-09-11T14:17:02.988Z,9.75
2022-09-11T14:19:34.674Z,7.93
2022-09-11T14:22:03.737Z,8.65
2022-09-11T14:24:35.811Z,9.82
2022-09-11T14:27:05.038Z,7.13
2022-09-11T14:29:36.359Z,5.85
2022-09-11T14:32:19.957Z,12.65
2022-09-11T14:34:49.806Z,8.05
2022-09-11T14:37:19.234Z,7.07
2022-09-11T14:39:50.227Z,15.57
2022-09-11T14:42:21.271Z,8.88
2022-09-11T14:44:49.705Z,9.48
2022-09-11T14:47:19.154Z,16.98
2022-09-11T14:49:48.156Z,8.45
2022-09-11T14:52:18.840Z,12.60
2022-09-11T14:54:47.610Z,11.52
2022-09-11T14:57:20.557Z,11.95
2022-09-11T14:59:49.579Z,10.48
2022-09-11T15:02:19.146Z,4.63
2022-09-11T15:04:48.262Z,10.68
2022-09-11T15:07:23.375Z,5.38
2022-09-11T15:09:52.299Z,10.25
2022-09-11T15:12:20.768Z,10.13
2022-09-11T15:14:58.430Z,5.45
2022-09-11T15:17:31.404Z,3.70
2022-09-11T15:20:01.044Z,9.48
2022-09-11T15:22:31.380Z,14.25
2022-09-11T15:25:00.050Z,13.63
2022-09-11T15:27:28.559Z,12.45
2022-09-11T15:29:57.195Z,7.30
2022-09-11T15:32:25.611Z,5.38
2022-09-11T15:34:54.856Z,4.93
2022-09-11T15:37:23.757Z,7.55
2022-09-11T15:39:53.718Z,8.30
2022-09-11T15:42:22.293Z,8.15
2022-09-11T15:44:50.692Z,5.18
2022-09-11T15:47:19.213Z,17.38
2022-09-11T15:49:48.707Z,9.43
2022-09-11T15:52:17.234Z,16.50
2022-09-11T15:54:47.618Z,10.23
2022-09-11T15:57:17.606Z,8.43
2022-09-11T15:59:46.058Z,6.75
2022-09-11T16:02:14.911Z,8.40
2022-09-11T16:04:43.731Z,7.32
2022-09-11T16:07:12.185Z,9.52
2022-09-11T16:09:40.679Z,9.27
2022-09-11T16:12:21.299Z,9.43
2022-09-11T16:14:52.578Z,11.13
2022-09-11T16:17:23.052Z,13.32
2022-09-11T16:19:51.562Z,7.50
2022-09-11T16:22:19.971Z,6.65
2022-09-11T16:24:48.577Z,5.43
2022-09-11T16:27:17.011Z,5.80
2022-09-11T16:30:25.878Z,5.78
2022-09-11T16:32:39.265Z,5.97
2022-09-11T16:35:08.722Z,7.45
2022-09-11T16:37:38.245Z,5.20
2022-09-11T16:40:07.294Z,5.07
2022-09-11T16:42:38.116Z,4.65
2022-09-11T16:45:06.947Z,5.13
2022-09-11T16:47:39.751Z,3.60
2022-09-11T16:50:08.769Z,2.40
2022-09-11T16:52:37.497Z,2.42
2022-09-11T16:55:06.345Z,3.22
2022-09-11T16:57:35.226Z,4.05
2022-09-11T17:00:05.264Z,5.57
2022-09-11T17:02:35.491Z,3.53
2022-09-11T17:05:06.077Z,2.13
2022-09-11T17:07:34.614Z,1.90
2022-09-11T17:10:03.145Z,3.28
2022-09-11T17:12:32.330Z,4.20
2022-09-11T17:15:00.805Z,4.80
2022-09-11T17:17:29.259Z,3.03
2022-09-11T17:19:59.271Z,3.15
2022-09-11T17:22:29.783Z,3.70
2022-09-11T17:24:58.203Z,5.05
2022-09-11T17:27:26.859Z,5.43
2022-09-11T17:29:55.411Z,7.82
2022-09-11T17:32:28.199Z,7.40
2022-09-11T17:34:58.465Z,7.22
2022-09-11T17:37:27.181Z,6.55
2022-09-11T17:39:58.019Z,7.18
2022-09-11T17:42:28.778Z,6.50
2022-09-11T17:44:57.795Z,5.82
2022-09-11T17:47:26.240Z,5.70
2022-09-11T17:49:54.747Z,6.35
2022-09-11T17:52:23.221Z,5.13
2022-09-11T17:54:51.667Z,5.35
2022-09-11T17:57:21.493Z,5.60
2022-09-11T17:59:51.068Z,4.82
2022-09-11T18:02:19.831Z,5.10
2022-09-11T18:04:49.694Z,4.93
2022-09-11T18:07:18.612Z,4.40
2022-09-11T18:09:47.643Z,4.57
2022-09-11T18:12:16.195Z,4.32
2022-09-11T18:14:46.036Z,4.53
2022-09-11T18:17:14.559Z,3.58
2022-09-11T18:19:44.247Z,3.45
2022-09-11T18:22:12.946Z,3.40
2022-09-11T18:24:41.388Z,3.00
2022-09-11T18:27:11.633Z,2.92
2022-09-11T18:29:40.876Z,2.80
2022-09-11T18:32:10.681Z,2.47
2022-09-11T18:34:39.374Z,2.60
2022-09-11T18:37:08.664Z,2.00
2022-09-11T18:39:38.319Z,2.20
2022-09-11T18:42:07.566Z,1.90
2022-09-11T18:44:36.016Z,1.80
2022-09-11T18:47:04.477Z,1.90
2022-09-11T18:49:34.881Z,1.83
2022-09-11T18:52:03.475Z,1.73
2022-09-11T18:54:32.149Z,1.90
2022-09-11T18:57:00.670Z,1.83
2022-09-11T18:59:29.175Z,2.00
2022-09-11T19:01:57.729Z,1.73
2022-09-11T19:04:28.348Z,1.85
2022-09-11T19:07:00.174Z,1.70
2022-09-11T19:09:29.519Z,2.10
2022-09-11T19:12:00.223Z,1.90
2022-09-11T19:14:28.904Z,1.60
2022-09-11T19:16:57.901Z,1.85
2022-09-11T19:19:26.473Z,1.95
2022-09-11T19:21:54.874Z,1.95
2022-09-11T19:24:28.257Z,1.80
2022-09-11T19:26:56.705Z,1.70
2022-09-11T19:29:25.200Z,1.60
2022-09-11T19:31:54.782Z,1.90
2022-09-11T19:34:24.471Z,2.70
2022-09-11T19:36:53.495Z,2.20
2022-09-11T19:39:22.565Z,1.92
2022-09-11T19:41:52.449Z,2.00
2022-09-11T19:44:21.133Z,2.05
2022-09-11T19:46:53.459Z,2.20
2022-09-11T19:49:21.957Z,2.08
2022-09-11T19:51:53.183Z,1.80
2022-09-11T19:54:22.424Z,1.75
2022-09-11T19:56:52.397Z,1.90
2022-09-11T19:59:20.924Z,1.70
2022-09-11T20:01:49.423Z,1.65
2022-09-11T20:04:19.507Z,1.85
2022-09-11T20:09:30.886Z,1.67
2022-09-11T20:12:02.421Z,1.40
2022-09-11T20:14:31.465Z,1.67
2022-09-11T20:17:01.027Z,1.48
2022-09-11T20:19:29.748Z,1.50
2022-09-11T20:21:58.262Z,1.67
2022-09-11T20:24:27.073Z,1.63
2022-09-11T20:26:55.572Z,1.58
2022-09-11T20:29:25.400Z,1.60
2022-09-11T20:31:55.158Z,1.60
2022-09-11T20:34:27.920Z,1.48
2022-09-11T20:37:00.910Z,1.30
2022-09-11T20:39:29.535Z,1.20
2022-09-11T20:41:57.988Z,1.35
2022-09-11T20:44:27.792Z,1.40
2022-09-11T20:46:56.292Z,1.42
2022-09-11T20:49:24.761Z,1.70
2022-09-11T20:51:53.177Z,1.80
2022-09-11T20:54:21.672Z,1.80
2022-09-11T20:56:50.364Z,1.67
2022-09-11T20:59:18.790Z,1.58
2022-09-11T21:01:49.377Z,1.70
2022-09-11T21:04:18.044Z,1.80
2022-09-11T21:06:47.568Z,1.52
2022-09-11T21:09:16.022Z,1.80
2022-09-11T21:11:44.754Z,1.52
2022-09-11T21:14:13.650Z,1.50
2022-09-11T21:16:42.404Z,1.55
2022-09-11T21:19:12.355Z,1.70
2022-09-11T21:21:40.870Z,1.70
2022-09-11T21:24:10.685Z,1.50
2022-09-11T21:26:39.154Z,1.70
2022-09-11T21:29:08.408Z,1.60
2022-09-11T21:31:37.340Z,1.80
2022-09-11T21:34:05.815Z,1.98
2022-09-11T21:36:37.025Z,2.47
2022-09-11T21:39:06.256Z,2.40
2022-09-11T21:41:35.121Z,2.40
2022-09-11T21:44:03.800Z,2.17
2022-09-11T21:46:32.036Z,2.30
2022-09-11T21:49:00.255Z,2.30
2022-09-11T21:51:28.468Z,2.38
2022-09-11T21:54:01.804Z,2.45
2022-09-11T21:56:31.988Z,2.30
2022-09-11T21:59:01.235Z,2.05
2022-09-11T22:01:31.797Z,2.55
2022-09-11T22:04:01.526Z,2.85
2022-09-11T22:06:30.287Z,2.15
2022-09-11T22:09:00.622Z,2.50
2022-09-11T22:11:29.130Z,2.53
2022-09-11T22:13:57.557Z,2.45
2022-09-11T22:16:26.153Z,2.00
2022-09-11T22:18:56.946Z,1.80
2022-09-11T22:21:25.717Z,2.00
2022-09-11T22:23:55.248Z,2.20
2022-09-11T22:26:25.201Z,1.85
2022-09-11T22:28:53.890Z,2.00
2022-09-11T22:31:23.921Z,2.30
2022-09-11T22:33:52.867Z,1.92
2022-09-11T22:36:23.615Z,1.83
2022-09-11T22:38:52.313Z,2.08
2022-09-11T22:41:20.895Z,2.15
2022-09-11T22:43:51.088Z,2.03
2022-09-11T22:46:21.653Z,2.20
2022-09-11T22:48:50.157Z,2.20
2022-09-11T22:51:18.648Z,2.10
2022-09-11T22:53:47.028Z,1.90
2022-09-11T22:56:15.482Z,2.10
2022-09-11T22:58:43.795Z,2.30
2022-09-11T23:01:21.033Z,2.70
2022-09-11T23:03:50.768Z,1.70
2022-09-11T23:06:36.887Z,2.08
2022-09-11T23:09:05.538Z,1.80
2022-09-11T23:11:33.926Z,1.95
2022-09-11T23:14:02.200Z,1.85
2022-09-11T23:16:31.900Z,2.03
2022-09-11T23:19:04.174Z,2.10
2022-09-11T23:21:35.530Z,2.00
2022-09-11T23:24:06.245Z,1.83
2022-09-11T23:26:35.054Z,2.08
2022-09-11T23:29:03.262Z,2.28
2022-09-11T23:31:35.072Z,2.00
2022-09-11T23:34:05.335Z,2.00
2022-09-11T23:36:34.227Z,1.92
2022-09-11T23:39:03.614Z,2.20
2022-09-11T23:41:32.801Z,1.90
2022-09-11T23:44:03.628Z,1.60
2022-09-11T23:46:33.767Z,2.03
2022-09-11T23:49:01.930Z,2.00
2022-09-11T23:51:30.133Z,2.22
2022-09-11T23:53:58.592Z,2.13
2022-09-11T23:56:27.151Z,2.13
2022-09-11T23:58:55.505Z,2.03
